Time;durP1;ratioP1;P1;durP2;ratioP2;P2;SDS_P1;SDS_P2;PMS_P1;PMS_P2;Temp;Humidity;BMP_temperature;BMP_pressure;BME280_temperature;BME280_humidity;BME280_pressure;Samples;Min_cycle;Max_cycle;Signal;HPM_P1;HPM_P2
2021/11/22 00:02:09;;;;;;;1.73;1.20;;;;;;;;;;5017192;28;20740;-72
2021/11/22 00:04:37;;;;;;;1.73;1.27;;;;;;;;;;5009344;28;20470;-72
2021/11/22 00:07:05;;;;;;;2.50;1.60;;;;;;;;;;5029275;28;20505;-71
2021/11/22 00:09:33;;;;;;;3.03;1.87;;;;;;;;;;5017372;28;20455;-73
2021/11/22 00:12:02;;;;;;;1.50;1.00;;;;;;;;;;5017951;28;20855;-73
2021/11/22 00:14:30;;;;;;;2.00;1.30;;;;;;;;;;5016551;28;20668;-73
2021/11/22 00:16:59;;;;;;;1.57;1.10;;;;;;;;;;5016571;28;20455;-73
2021/11/22 00:19:27;;;;;;;1.70;1.00;;;;;;;;;;5015787;28;20542;-73
2021/11/22 00:21:55;;;;;;;1.87;1.30;;;;;;;;;;5015813;28;20470;-73
2021/11/22 00:24:22;;;;;;;2.00;1.30;;;;;;;;;;5016436;28;20463;-73
2021/11/22 00:26:50;;;;;;;2.83;1.07;;;;;;;;;;5016746;28;20462;-73
2021/11/22 00:29:19;;;;;;;3.13;2.17;;;;;;;;;;5016365;28;20523;-73
2021/11/22 00:31:49;;;;;;;2.93;1.63;;;;;;;;;;5016863;28;20467;-73
2021/11/22 00:34:17;;;;;;;3.53;2.13;;;;;;;;;;5016635;28;20447;-73
2021/11/22 00:36:45;;;;;;;2.03;1.40;;;;;;;;;;5017093;28;20873;-72
2021/11/22 00:39:12;;;;;;;3.10;2.00;;;;;;;;;;5017520;28;20466;-72
2021/11/22 00:41:40;;;;;;;2.30;1.87;;;;;;;;;;5016218;28;20502;-73
2021/11/22 00:44:08;;;;;;;2.60;2.40;;;;;;;;;;5016026;28;20470;-73
2021/11/22 00:46:38;;;;;;;1.50;1.27;;;;;;;;;;5016224;28;20466;-73
2021/11/22 00:49:06;;;;;;;2.60;1.90;;;;;;;;;;5016618;28;20509;-73
2021/11/22 00:51:33;;;;;;;2.03;1.40;;;;;;;;;;5015917;28;20474;-73
2021/11/22 00:54:01;;;;;;;4.90;1.80;;;;;;;;;;5016996;28;20541;-73
2021/11/22 00:56:29;;;;;;;5.67;2.70;;;;;;;;;;5016557;28;20788;-73
2021/11/22 00:58:57;;;;;;;2.50;2.00;;;;;;;;;;5016890;28;20448;-73
2021/11/22 01:01:25;;;;;;;2.53;2.33;;;;;;;;;;5016682;28;20518;-73
2021/11/22 01:03:54;;;;;;;1.57;1.00;;;;;;;;;;5016505;28;20574;-73
2021/11/22 01:06:24;;;;;;;1.80;1.00;;;;;;;;;;5015307;28;20626;-73
2021/11/22 01:08:52;;;;;;;2.90;1.17;;;;;;;;;;5016330;28;20467;-73
2021/11/22 01:11:20;;;;;;;2.60;0.87;;;;;;;;;;5015965;28;20481;-73
2021/11/22 01:13:47;;;;;;;2.80;1.20;;;;;;;;;;5016083;28;20517;-73
2021/11/22 01:16:16;;;;;;;2.07;1.00;;;;;;;;;;5016218;28;20529;-73
2021/11/22 01:18:43;;;;;;;2.60;1.10;;;;;;;;;;5016096;28;20955;-72
2021/11/22 01:21:13;;;;;;;1.77;1.10;;;;;;;;;;5016347;28;20487;-73
2021/11/22 01:23:40;;;;;;;3.40;1.10;;;;;;;;;;5016117;28;20451;-72
2021/11/22 01:26:08;;;;;;;2.00;1.23;;;;;;;;;;5015008;28;20564;-72
2021/11/22 01:28:37;;;;;;;1.50;0.90;;;;;;;;;;5015848;28;20455;-72
2021/11/22 01:31:05;;;;;;;2.03;1.20;;;;;;;;;;5016615;28;20463;-72
2021/11/22 01:33:32;;;;;;;2.80;1.43;;;;;;;;;;5016426;28;20562;-73
2021/11/22 01:36:00;;;;;;;2.27;1.13;;;;;;;;;;5016683;28;20837;-71
2021/11/22 01:38:29;;;;;;;2.30;0.90;;;;;;;;;;5016143;28;20458;-73
2021/11/22 01:40:57;;;;;;;1.67;1.10;;;;;;;;;;5016117;28;20519;-73
2021/11/22 01:43:25;;;;;;;2.00;0.87;;;;;;;;;;5016139;28;20474;-73
2021/11/22 01:45:53;;;;;;;1.60;1.00;;;;;;;;;;5014794;28;20747;-73
2021/11/22 01:48:24;;;;;;;1.60;0.93;;;;;;;;;;5017179;28;20553;-73
2021/11/22 01:50:52;;;;;;;2.87;1.47;;;;;;;;;;5016023;28;20696;-72
2021/11/22 01:53:21;;;;;;;3.17;1.80;;;;;;;;;;5016358;28;20828;-73
2021/11/22 01:55:50;;;;;;;1.70;1.00;;;;;;;;;;5016141;28;20570;-73
2021/11/22 01:58:20;;;;;;;1.80;0.90;;;;;;;;;;5016021;28;20902;-73
2021/11/22 02:00:49;;;;;;;2.30;1.50;;;;;;;;;;5019057;28;20497;-72
2021/11/22 02:03:18;;;;;;;2.03;1.10;;;;;;;;;;5019206;28;20557;-72
2021/11/22 02:05:46;;;;;;;2.97;1.30;;;;;;;;;;5020934;28;20490;-73
2021/11/22 02:08:14;;;;;;;1.40;0.90;;;;;;;;;;5021974;28;20463;-73
2021/11/22 02:10:45;;;;;;;2.23;1.40;;;;;;;;;;5017880;28;20467;-72
2021/11/22 02:13:14;;;;;;;2.00;1.30;;;;;;;;;;5016259;28;20455;-72
2021/11/22 02:15:42;;;;;;;1.30;0.80;;;;;;;;;;5016066;28;20465;-73
2021/11/22 02:18:10;;;;;;;1.73;0.93;;;;;;;;;;5016222;28;20474;-73
2021/11/22 02:20:40;;;;;;;1.80;0.90;;;;;;;;;;5015762;28;20575;-73
2021/11/22 02:23:08;;;;;;;7.63;0.90;;;;;;;;;;5017415;28;20463;-72
2021/11/22 02:25:37;;;;;;;1.80;1.13;;;;;;;;;;5023786;28;20463;-73
2021/11/22 02:28:05;;;;;;;1.70;1.03;;;;;;;;;;5019857;28;20471;-73
2021/11/22 02:30:34;;;;;;;2.03;1.07;;;;;;;;;;5019388;28;20473;-73
2021/11/22 02:33:02;;;;;;;2.43;1.20;;;;;;;;;;5019512;28;20494;-72
2021/11/22 02:35:31;;;;;;;2.70;0.93;;;;;;;;;;5019266;28;20541;-73
2021/11/22 02:38:04;;;;;;;5.10;0.93;;;;;;;;;;5019846;28;20463;-73
2021/11/22 02:40:32;;;;;;;1.97;1.27;;;;;;;;;;5019544;28;20608;-73
2021/11/22 02:43:00;;;;;;;2.33;1.00;;;;;;;;;;5019624;28;20570;-73
2021/11/22 02:45:28;;;;;;;1.83;0.90;;;;;;;;;;5019321;28;20465;-73
2021/11/22 02:47:56;;;;;;;1.40;0.90;;;;;;;;;;5019388;28;20800;-73
2021/11/22 02:50:24;;;;;;;1.30;0.70;;;;;;;;;;5019503;28;20741;-72
2021/11/22 02:52:52;;;;;;;1.40;0.90;;;;;;;;;;5019039;28;20479;-72
2021/11/22 02:55:22;;;;;;;2.13;1.00;;;;;;;;;;5019441;28;20470;-73
2021/11/22 02:57:51;;;;;;;6.43;1.23;;;;;;;;;;5018885;28;20876;-73
2021/11/22 03:00:21;;;;;;;1.60;1.10;;;;;;;;;;5019355;28;20466;-72
2021/11/22 03:02:49;;;;;;;3.43;1.30;;;;;;;;;;5018477;28;20499;-72
2021/11/22 03:05:16;;;;;;;1.33;0.77;;;;;;;;;;5018709;28;20751;-72
2021/11/22 03:07:45;;;;;;;2.20;1.03;;;;;;;;;;5018944;28;20478;-72
2021/11/22 03:10:15;;;;;;;1.47;0.80;;;;;;;;;;5018727;28;20543;-72
2021/11/22 03:12:45;;;;;;;2.03;1.60;;;;;;;;;;5018641;28;20478;-72
2021/11/22 03:15:14;;;;;;;2.20;0.80;;;;;;;;;;5019381;28;20467;-72
2021/11/22 03:17:42;;;;;;;1.73;0.87;;;;;;;;;;5018473;28;20489;-72
2021/11/22 03:20:11;;;;;;;2.17;0.70;;;;;;;;;;5018690;28;20531;-72
2021/11/22 03:22:39;;;;;;;2.10;0.77;;;;;;;;;;5018757;28;20482;-72
2021/11/22 03:25:08;;;;;;;1.40;0.80;;;;;;;;;;5019532;28;20463;-72
2021/11/22 03:27:36;;;;;;;1.80;1.00;;;;;;;;;;5019453;28;21434;-72
2021/11/22 03:30:06;;;;;;;1.83;0.90;;;;;;;;;;5018703;28;20485;-71
2021/11/22 03:32:34;;;;;;;1.83;0.70;;;;;;;;;;5018914;28;20769;-71
2021/11/22 03:35:02;;;;;;;1.60;0.80;;;;;;;;;;5017548;28;20456;-71
2021/11/22 03:37:30;;;;;;;1.30;0.77;;;;;;;;;;5019365;28;20521;-72
2021/11/22 03:39:59;;;;;;;1.23;0.70;;;;;;;;;;5018937;28;20455;-71
2021/11/22 03:42:36;;;;;;;1.70;1.00;;;;;;;;;;5018105;28;20495;-72
2021/11/22 03:45:06;;;;;;;1.23;0.73;;;;;;;;;;5018983;28;20562;-71
2021/11/22 03:47:34;;;;;;;1.80;0.73;;;;;;;;;;5019160;28;20467;-72
2021/11/22 03:50:01;;;;;;;2.80;1.63;;;;;;;;;;5018491;28;20451;-71
2021/11/22 03:52:29;;;;;;;1.10;0.60;;;;;;;;;;5018254;28;20741;-71
2021/11/22 03:54:57;;;;;;;1.67;0.70;;;;;;;;;;5018618;28;20851;-72
2021/11/22 03:57:27;;;;;;;1.20;0.70;;;;;;;;;;5017692;28;20471;-71
2021/11/22 03:59:55;;;;;;;5.40;0.70;;;;;;;;;;5017977;28;20502;-72
2021/11/22 04:02:24;;;;;;;2.37;1.30;;;;;;;;;;5018537;28;20503;-73
2021/11/22 04:04:52;;;;;;;1.57;1.10;;;;;;;;;;5018356;28;20467;-72
2021/11/22 04:07:20;;;;;;;3.10;0.80;;;;;;;;;;5018045;28;20558;-73
2021/11/22 04:09:47;;;;;;;2.83;1.13;;;;;;;;;;5017920;28;20552;-72
2021/11/22 04:12:15;;;;;;;1.40;0.80;;;;;;;;;;5017662;28;20864;-72
2021/11/22 04:14:43;;;;;;;1.20;0.70;;;;;;;;;;5017201;28;20558;-72
2021/11/22 04:17:11;;;;;;;2.60;1.20;;;;;;;;;;5017460;28;21041;-72
2021/11/22 04:19:41;;;;;;;2.03;1.13;;;;;;;;;;5017642;28;20470;-72
2021/11/22 04:22:08;;;;;;;3.10;1.10;;;;;;;;;;5017363;28;20778;-72
2021/11/22 04:24:36;;;;;;;5.43;1.20;;;;;;;;;;5017658;28;20545;-72
2021/11/22 04:27:04;;;;;;;5.93;4.30;;;;;;;;;;5017128;28;20470;-70
2021/11/22 04:29:32;;;;;;;2.60;1.53;;;;;;;;;;5017103;28;20470;-72
2021/11/22 04:32:02;;;;;;;2.27;1.57;;;;;;;;;;5017287;28;20549;-73
2021/11/22 04:34:29;;;;;;;1.40;1.03;;;;;;;;;;5017652;28;20756;-72
2021/11/22 04:36:59;;;;;;;1.40;0.67;;;;;;;;;;5017241;28;20462;-72
2021/11/22 04:39:26;;;;;;;1.53;1.00;;;;;;;;;;5018503;28;20836;-72
2021/11/22 04:41:54;;;;;;;1.30;0.83;;;;;;;;;;5017819;28;20522;-72
2021/11/22 04:44:22;;;;;;;1.57;1.03;;;;;;;;;;5017084;28;20510;-72
2021/11/22 04:46:50;;;;;;;1.73;1.00;;;;;;;;;;5016572;28;20915;-71
2021/11/22 04:49:17;;;;;;;1.90;1.10;;;;;;;;;;5017206;28;20894;-72
2021/11/22 04:51:45;;;;;;;1.67;1.20;;;;;;;;;;5016431;28;20763;-72
2021/11/22 04:54:14;;;;;;;2.63;1.90;;;;;;;;;;5016625;28;20463;-72
2021/11/22 04:56:42;;;;;;;2.57;0.83;;;;;;;;;;5016622;28;20955;-72
2021/11/22 04:59:10;;;;;;;2.23;1.33;;;;;;;;;;5016363;28;20468;-72
2021/11/22 05:01:38;;;;;;;6.27;1.70;;;;;;;;;;5016592;28;20589;-72
2021/11/22 05:04:05;;;;;;;3.97;1.73;;;;;;;;;;5016815;28;20481;-72
2021/11/22 05:06:33;;;;;;;3.83;2.00;;;;;;;;;;5016303;28;20801;-72
2021/11/22 05:09:01;;;;;;;1.80;1.07;;;;;;;;;;5016885;28;20560;-72
2021/11/22 05:11:30;;;;;;;2.63;1.50;;;;;;;;;;5018898;28;20459;-72
2021/11/22 05:13:58;;;;;;;3.37;2.03;;;;;;;;;;5019155;28;20562;-72
2021/11/22 05:16:26;;;;;;;2.53;1.53;;;;;;;;;;5018290;28;20459;-72
2021/11/22 05:18:55;;;;;;;1.97;0.90;;;;;;;;;;5015564;28;20929;-72
2021/11/22 05:21:25;;;;;;;1.77;1.07;;;;;;;;;;5016280;28;20506;-73
2021/11/22 05:23:55;;;;;;;1.60;0.97;;;;;;;;;;5016027;28;20791;-71
2021/11/22 05:26:23;;;;;;;1.97;1.13;;;;;;;;;;5016626;28;20528;-72
2021/11/22 05:28:52;;;;;;;3.10;2.07;;;;;;;;;;5016382;28;20474;-72
2021/11/22 05:31:20;;;;;;;1.83;1.33;;;;;;;;;;5019647;28;20534;-71
2021/11/22 05:33:47;;;;;;;3.90;2.70;;;;;;;;;;5017133;28;20545;-73
2021/11/22 05:36:18;;;;;;;6.73;3.80;;;;;;;;;;5016695;28;20517;-73
2021/11/22 05:38:46;;;;;;;5.43;3.23;;;;;;;;;;5016545;28;20471;-72
2021/11/22 05:41:14;;;;;;;3.30;1.50;;;;;;;;;;5020145;28;20588;-72
2021/11/22 05:43:42;;;;;;;3.23;1.90;;;;;;;;;;5016497;28;20462;-72
2021/11/22 05:46:12;;;;;;;6.50;2.57;;;;;;;;;;5016592;28;20918;-72
2021/11/22 05:48:40;;;;;;;6.23;4.30;;;;;;;;;;5015702;28;20558;-72
2021/11/22 05:51:10;;;;;;;3.10;2.07;;;;;;;;;;5015255;28;20470;-72
2021/11/22 05:53:44;;;;;;;7.63;2.43;;;;;;;;;;5015779;28;20467;-72
2021/11/22 05:56:12;;;;;;;5.73;1.83;;;;;;;;;;5015528;28;20747;-71
2021/11/22 05:58:39;;;;;;;1.70;1.20;;;;;;;;;;5016109;28;20470;-72
2021/11/22 06:01:08;;;;;;;6.23;1.43;;;;;;;;;;5019116;28;20562;-72
2021/11/22 06:03:37;;;;;;;2.57;1.27;;;;;;;;;;5018867;28;20577;-72
2021/11/22 06:06:05;;;;;;;3.73;1.47;;;;;;;;;;5020866;28;20469;-71
2021/11/22 06:08:34;;;;;;;3.50;1.80;;;;;;;;;;5038067;28;20478;-72
2021/11/22 06:11:02;;;;;;;4.60;1.70;;;;;;;;;;5038346;28;20795;-72
2021/11/22 06:13:29;;;;;;;2.70;1.83;;;;;;;;;;5039273;28;20511;-72
2021/11/22 06:15:57;;;;;;;3.23;2.20;;;;;;;;;;5039276;28;20459;-72
2021/11/22 06:18:25;;;;;;;2.20;1.53;;;;;;;;;;5047677;28;20463;-72
2021/11/22 06:20:54;;;;;;;2.10;1.90;;;;;;;;;;5039235;28;20867;-72
2021/11/22 06:23:22;;;;;;;2.23;1.43;;;;;;;;;;5035919;28;20561;-72
2021/11/22 06:25:50;;;;;;;4.27;2.60;;;;;;;;;;5035570;28;20828;-72
2021/11/22 06:28:19;;;;;;;3.97;2.70;;;;;;;;;;5034738;28;20460;-72
2021/11/22 06:30:47;;;;;;;6.70;3.20;;;;;;;;;;5033074;28;20815;-72
2021/11/22 06:33:15;;;;;;;4.30;3.60;;;;;;;;;;5034497;28;20732;-72
2021/11/22 06:35:43;;;;;;;2.80;2.40;;;;;;;;;;5033547;28;20820;-72
2021/11/22 06:38:13;;;;;;;7.07;4.73;;;;;;;;;;5022456;28;20549;-71
2021/11/22 06:40:41;;;;;;;6.90;2.60;;;;;;;;;;5014607;28;20474;-72
2021/11/22 06:43:11;;;;;;;4.37;3.37;;;;;;;;;;5027175;28;20484;-72
2021/11/22 06:45:38;;;;;;;5.57;4.10;;;;;;;;;;5036327;28;20468;-72
2021/11/22 06:48:07;;;;;;;6.20;3.70;;;;;;;;;;5036281;28;20462;-72
2021/11/22 06:50:35;;;;;;;5.13;3.90;;;;;;;;;;5024457;28;20473;-72
2021/11/22 06:53:03;;;;;;;3.40;2.70;;;;;;;;;;5017057;28;20557;-72
2021/11/22 06:55:33;;;;;;;2.97;2.33;;;;;;;;;;5028948;28;20466;-72
2021/11/22 06:58:01;;;;;;;6.43;2.00;;;;;;;;;;5037154;28;20464;-72
2021/11/22 07:00:28;;;;;;;4.87;3.13;;;;;;;;;;5035965;28;20545;-72
2021/11/22 07:02:59;;;;;;;6.80;3.40;;;;;;;;;;5036626;28;20529;-72
2021/11/22 07:05:28;;;;;;;5.10;2.83;;;;;;;;;;5036289;28;20935;-72
2021/11/22 07:07:56;;;;;;;3.07;2.40;;;;;;;;;;5030308;28;20464;-72
2021/11/22 07:10:23;;;;;;;5.80;2.90;;;;;;;;;;5014709;28;20455;-73
2021/11/22 07:12:53;;;;;;;4.50;2.57;;;;;;;;;;5016785;28;20451;-74
2021/11/22 07:15:22;;;;;;;3.97;3.27;;;;;;;;;;5016910;28;20561;-74
2021/11/22 07:17:50;;;;;;;6.30;3.20;;;;;;;;;;5018564;28;20886;-72
2021/11/22 07:20:18;;;;;;;15.07;4.40;;;;;;;;;;5027625;28;20475;-72
2021/11/22 07:22:45;;;;;;;4.00;2.73;;;;;;;;;;5023502;28;20506;-72
2021/11/22 07:25:17;;;;;;;5.83;2.63;;;;;;;;;;5025210;28;20455;-72
2021/11/22 07:27:44;;;;;;;4.90;3.17;;;;;;;;;;5016515;28;20781;-72
2021/11/22 07:30:21;;;;;;;6.00;3.13;;;;;;;;;;5033422;28;20520;-73
2021/11/22 07:32:54;;;;;;;5.23;2.90;;;;;;;;;;5036947;28;20531;-73
2021/11/22 07:35:22;;;;;;;5.10;3.90;;;;;;;;;;5036584;28;20485;-72
2021/11/22 07:37:50;;;;;;;4.87;3.80;;;;;;;;;;5035608;28;20454;-72
2021/11/22 07:40:22;;;;;;;4.87;2.77;;;;;;;;;;5036484;28;20541;-73
2021/11/22 07:42:50;;;;;;;5.90;3.20;;;;;;;;;;5035792;28;20911;-72
2021/11/22 07:45:19;;;;;;;4.10;2.03;;;;;;;;;;5036182;28;20454;-73
2021/11/22 07:47:47;;;;;;;3.90;2.83;;;;;;;;;;5046342;28;20858;-73
2021/11/22 07:50:15;;;;;;;7.37;3.40;;;;;;;;;;5031100;28;20470;-73
2021/11/22 07:52:44;;;;;;;3.80;2.63;;;;;;;;;;5039776;28;20462;-73
2021/11/22 07:55:12;;;;;;;9.67;6.57;;;;;;;;;;5039673;28;20450;-74
2021/11/22 07:57:41;;;;;;;10.50;5.07;;;;;;;;;;5038519;28;20469;-72
2021/11/22 08:00:13;;;;;;;22.73;5.60;;;;;;;;;;5034636;28;20443;-72
2021/11/22 08:02:42;;;;;;;7.67;4.07;;;;;;;;;;5019944;28;20493;-73
2021/11/22 08:05:15;;;;;;;6.83;3.10;;;;;;;;;;5015993;28;20459;-73
2021/11/22 08:07:45;;;;;;;5.20;3.67;;;;;;;;;;5015597;28;20455;-72
2021/11/22 08:10:25;;;;;;;8.70;3.63;;;;;;;;;;5016542;28;20455;-73
2021/11/22 08:12:56;;;;;;;5.07;3.20;;;;;;;;;;5015894;28;20499;-73
2021/11/22 08:15:25;;;;;;;8.23;4.90;;;;;;;;;;5016480;28;21136;-73
2021/11/22 08:18:01;;;;;;;9.53;5.77;;;;;;;;;;5016195;28;20548;-73
2021/11/22 08:20:32;;;;;;;4.03;3.00;;;;;;;;;;5013988;28;20450;-72
2021/11/22 08:23:03;;;;;;;8.83;5.60;;;;;;;;;;5014617;28;20490;-73
2021/11/22 08:25:36;;;;;;;9.30;3.77;;;;;;;;;;5015137;28;20533;-73
2021/11/22 08:28:04;;;;;;;4.87;3.53;;;;;;;;;;5016385;28;20962;-72
2021/11/22 08:30:35;;;;;;;4.33;2.80;;;;;;;;;;5029643;28;20461;-72
2021/11/22 08:33:05;;;;;;;9.10;5.50;;;;;;;;;;5032605;28;20466;-72
2021/11/22 08:35:35;;;;;;;9.57;6.33;;;;;;;;;;5014523;28;20463;-74
2021/11/22 08:38:03;;;;;;;7.43;4.60;;;;;;;;;;5019297;28;20452;-72
2021/11/22 08:40:31;;;;;;;7.03;4.50;;;;;;;;;;5014761;28;20467;-72
2021/11/22 08:43:07;;;;;;;7.03;5.83;;;;;;;;;;5015270;28;20534;-73
2021/11/22 08:45:40;;;;;;;5.70;4.23;;;;;;;;;;5015711;28;20508;-73
2021/11/22 08:48:10;;;;;;;6.47;5.40;;;;;;;;;;5034375;28;20473;-73
2021/11/22 08:50:39;;;;;;;6.67;4.53;;;;;;;;;;5034922;28;20469;-74
2021/11/22 08:53:07;;;;;;;8.20;4.63;;;;;;;;;;5035961;28;21124;-74
2021/11/22 08:55:37;;;;;;;5.07;4.10;;;;;;;;;;5035213;28;20473;-74
2021/11/22 08:58:08;;;;;;;8.13;5.60;;;;;;;;;;5014468;28;21194;-73
2021/11/22 09:00:37;;;;;;;5.37;4.20;;;;;;;;;;5031131;28;20451;-72
2021/11/22 09:03:06;;;;;;;9.33;4.80;;;;;;;;;;5015155;28;20518;-72
2021/11/22 09:05:35;;;;;;;5.50;4.43;;;;;;;;;;5016788;28;20879;-75
2021/11/22 09:08:03;;;;;;;6.60;5.50;;;;;;;;;;5022341;28;20536;-72
2021/11/22 09:10:32;;;;;;;7.63;4.57;;;;;;;;;;5034132;28;20470;-73
2021/11/22 09:13:06;;;;;;;8.70;5.37;;;;;;;;;;5034914;28;20458;-75
2021/11/22 09:15:34;;;;;;;7.50;5.30;;;;;;;;;;5034778;28;20480;-75
2021/11/22 09:18:08;;;;;;;4.33;2.93;;;;;;;;;;5036655;28;20707;-75
2021/11/22 09:20:41;;;;;;;7.10;4.23;;;;;;;;;;5034562;28;20470;-75
2021/11/22 09:23:16;;;;;;;12.13;6.37;;;;;;;;;;5035148;28;20741;-75
2021/11/22 09:25:45;;;;;;;6.30;5.37;;;;;;;;;;5035641;28;20745;-75
2021/11/22 09:31:06;;;;;;;5.77;4.47;;;;;;;;;;5033689;28;20557;-74
2021/11/22 09:33:34;;;;;;;6.73;5.40;;;;;;;;;;5034441;28;20443;-75
2021/11/22 09:36:08;;;;;;;5.50;3.00;;;;;;;;;;5034533;28;20581;-74
2021/11/22 09:38:57;;;;;;;6.20;3.17;;;;;;;;;;5034312;28;20457;-75
2021/11/22 09:41:27;;;;;;;3.30;2.23;;;;;;;;;;5035788;28;20613;-73
2021/11/22 09:44:19;;;;;;;;;;;;;;;;;;;;;
2021/11/22 09:46:48;;;;;;;8.77;3.47;;;;;;;;;;5015113;28;20463;-73
2021/11/22 09:52:19;;;;;;;6.30;4.10;;;;;;;;;;5038887;28;20449;-73
2021/11/22 09:54:48;;;;;;;8.70;4.37;;;;;;;;;;5036234;28;20465;-73
2021/11/22 09:59:59;;;;;;;11.53;7.50;;;;;;;;;;5002231;28;20548;-74
2021/11/22 10:02:42;;;;;;;7.33;4.70;;;;;;;;;;5018328;28;20478;-74
2021/11/22 10:05:24;;;;;;;9.10;4.37;;;;;;;;;;5022328;28;21060;-73
2021/11/22 10:08:11;;;;;;;9.80;6.53;;;;;;;;;;5014604;28;21058;-74
2021/11/22 10:10:42;;;;;;;12.73;4.83;;;;;;;;;;5017160;28;20966;-72
2021/11/22 10:13:21;;;;;;;12.13;8.13;;;;;;;;;;5016605;28;20471;-73
2021/11/22 10:16:06;;;;;;;6.60;4.37;;;;;;;;;;5015095;28;20769;-74
2021/11/22 10:18:37;;;;;;;9.83;4.90;;;;;;;;;;5016301;28;20471;-74
2021/11/22 10:21:10;;;;;;;9.47;5.27;;;;;;;;;;5024300;28;20524;-75
2021/11/22 10:23:41;;;;;;;6.07;3.63;;;;;;;;;;5015017;28;20497;-73
2021/11/22 10:26:11;;;;;;;9.87;6.20;;;;;;;;;;5015459;28;20454;-73
2021/11/22 10:28:41;;;;;;;3.93;3.33;;;;;;;;;;5015726;28;20967;-73
2021/11/22 10:31:12;;;;;;;6.43;4.03;;;;;;;;;;5020750;28;20494;-74
2021/11/22 10:33:51;;;;;;;4.83;3.33;;;;;;;;;;5014673;28;20467;-74
2021/11/22 10:36:23;;;;;;;5.63;3.37;;;;;;;;;;5013808;28;20531;-74
2021/11/22 10:38:54;;;;;;;5.37;3.00;;;;;;;;;;5015561;28;20479;-72
2021/11/22 10:41:33;;;;;;;9.13;5.67;;;;;;;;;;5022477;28;20688;-73
2021/11/22 10:44:05;;;;;;;5.00;3.03;;;;;;;;;;5020679;28;20482;-72
2021/11/22 10:49:38;;;;;;;5.27;4.10;;;;;;;;;;5020150;28;20466;-75
2021/11/22 10:52:35;;;;;;;5.27;3.43;;;;;;;;;;5036257;28;20464;-75
2021/11/22 10:55:07;;;;;;;4.83;3.60;;;;;;;;;;5032747;28;20495;-74
2021/11/22 10:57:35;;;;;;;6.23;4.13;;;;;;;;;;5019039;28;20546;-74
2021/11/22 11:00:24;;;;;;;6.87;4.40;;;;;;;;;;5020664;28;20565;-74
2021/11/22 11:02:52;;;;;;;5.33;3.47;;;;;;;;;;5018839;28;20529;-74
2021/11/22 11:05:27;;;;;;;4.53;3.50;;;;;;;;;;5018828;28;20501;-72
2021/11/22 11:07:59;;;;;;;10.37;3.87;;;;;;;;;;5035767;28;20458;-74
2021/11/22 11:10:39;;;;;;;7.20;3.70;;;;;;;;;;5032734;28;20566;-74
2021/11/22 11:13:11;;;;;;;10.50;5.90;;;;;;;;;;5034273;28;20508;-76
2021/11/22 11:15:39;;;;;;;10.83;6.27;;;;;;;;;;5037312;28;20450;-74
2021/11/22 11:18:24;;;;;;;4.93;3.17;;;;;;;;;;5018596;28;20490;-73
2021/11/22 11:20:57;;;;;;;6.30;4.40;;;;;;;;;;5018940;28;20466;-74
2021/11/22 11:23:26;;;;;;;5.17;3.17;;;;;;;;;;5024912;28;20478;-74
2021/11/22 11:25:56;;;;;;;7.20;3.30;;;;;;;;;;5037258;28;20463;-73
2021/11/22 11:28:24;;;;;;;5.37;3.90;;;;;;;;;;5038073;28;20553;-73
2021/11/22 11:30:52;;;;;;;6.97;3.07;;;;;;;;;;5018529;28;20455;-74
2021/11/22 11:33:20;;;;;;;5.13;3.67;;;;;;;;;;5017708;28;20521;-74
2021/11/22 11:35:52;;;;;;;5.43;3.50;;;;;;;;;;5028623;28;20446;-75
2021/11/22 11:38:26;;;;;;;5.90;3.30;;;;;;;;;;5035706;28;20477;-75
2021/11/22 11:41:09;;;;;;;6.93;4.97;;;;;;;;;;5038697;28;20741;-74
2021/11/22 11:43:47;;;;;;;6.40;4.30;;;;;;;;;;5027638;28;20506;-76
2021/11/22 11:46:25;;;;;;;8.20;5.30;;;;;;;;;;5018920;28;20459;-76
2021/11/22 11:49:03;;;;;;;4.50;3.40;;;;;;;;;;5020206;28;20466;-77
2021/11/22 11:51:39;;;;;;;12.50;5.87;;;;;;;;;;5019656;28;20463;-74
2021/11/22 11:54:11;;;;;;;8.50;5.50;;;;;;;;;;5019822;28;20470;-74
2021/11/22 11:56:59;;;;;;;4.73;3.53;;;;;;;;;;5031093;28;20502;-75
2021/11/22 11:59:40;;;;;;;5.17;2.70;;;;;;;;;;5019799;28;20462;-74
2021/11/22 12:02:14;;;;;;;4.30;2.33;;;;;;;;;;5032052;28;20529;-75
2021/11/22 12:05:19;;;;;;;6.13;4.23;;;;;;;;;;5015978;28;20599;-75
2021/11/22 12:07:52;;;;;;;8.13;4.03;;;;;;;;;;5019276;28;20447;-75
2021/11/22 12:10:26;;;;;;;5.10;3.70;;;;;;;;;;5018282;28;20569;-75
2021/11/22 12:13:07;;;;;;;4.17;2.30;;;;;;;;;;5020299;28;20831;-74
2021/11/22 12:15:43;;;;;;;6.33;3.63;;;;;;;;;;5033480;28;20494;-73
2021/11/22 12:18:12;;;;;;;6.63;3.43;;;;;;;;;;5038511;28;20454;-75
2021/11/22 12:24:21;;;;;;;5.63;3.20;;;;;;;;;;5032814;28;20486;-75
2021/11/22 12:26:55;;;;;;;6.60;4.73;;;;;;;;;;5038055;28;20450;-75
2021/11/22 12:29:35;;;;;;;8.80;3.07;;;;;;;;;;5037674;28;20468;-75
2021/11/22 12:32:51;;;;;;;6.37;4.33;;;;;;;;;;5035490;28;20450;-75
2021/11/22 12:35:48;;;;;;;6.77;3.73;;;;;;;;;;5034863;28;20991;-76
2021/11/22 12:38:26;;;;;;;6.90;4.30;;;;;;;;;;5030833;28;20475;-74
2021/11/22 12:41:09;;;;;;;2.87;2.03;;;;;;;;;;5031380;28;20943;-76
2021/11/22 12:43:43;;;;;;;5.20;2.90;;;;;;;;;;5028582;28;20478;-74
2021/11/22 12:46:18;;;;;;;5.27;2.90;;;;;;;;;;5030941;28;20495;-73
2021/11/22 12:48:49;;;;;;;6.77;4.57;;;;;;;;;;5019821;28;20470;-74
2021/11/22 12:51:18;;;;;;;8.20;6.10;;;;;;;;;;5028239;28;20493;-75
2021/11/22 12:54:04;;;;;;;4.43;3.50;;;;;;;;;;5028261;28;20459;-74
2021/11/22 12:56:41;;;;;;;5.37;3.00;;;;;;;;;;5033834;28;20466;-75
2021/11/22 12:59:15;;;;;;;9.13;6.43;;;;;;;;;;5020241;28;20435;-75
2021/11/22 13:01:54;;;;;;;5.07;3.20;;;;;;;;;;5030862;28;20498;-74
2021/11/22 13:04:43;;;;;;;4.60;3.10;;;;;;;;;;5028146;28;20498;-74
2021/11/22 13:07:26;;;;;;;5.73;4.27;;;;;;;;;;5035939;28;20776;-76
2021/11/22 13:10:02;;;;;;;4.67;3.63;;;;;;;;;;5037516;28;20446;-74
2021/11/22 13:12:36;;;;;;;4.67;3.60;;;;;;;;;;5020254;28;20878;-76
2021/11/22 13:15:32;;;;;;;8.90;4.43;;;;;;;;;;5036772;28;20463;-75
2021/11/22 13:18:09;;;;;;;5.40;3.43;;;;;;;;;;5024165;28;20885;-75
2021/11/22 13:20:37;;;;;;;7.40;3.07;;;;;;;;;;5035552;28;20454;-75
2021/11/22 13:23:12;;;;;;;4.60;2.73;;;;;;;;;;5030498;28;20463;-76
2021/11/22 13:25:57;;;;;;;5.87;3.60;;;;;;;;;;5023697;28;21303;-74
2021/11/22 13:28:48;;;;;;;4.33;2.93;;;;;;;;;;5031452;28;20502;-75
2021/11/22 13:31:16;;;;;;;7.93;3.50;;;;;;;;;;5024393;28;20443;-75
2021/11/22 13:33:52;;;;;;;4.43;2.50;;;;;;;;;;5024073;28;20556;-75
2021/11/22 13:36:28;;;;;;;8.93;4.47;;;;;;;;;;5037032;28;20524;-74
2021/11/22 13:39:05;;;;;;;4.50;3.43;;;;;;;;;;5026837;28;20468;-75
2021/11/22 13:41:36;;;;;;;4.10;2.60;;;;;;;;;;5032617;28;20814;-74
2021/11/22 13:44:08;;;;;;;5.63;3.43;;;;;;;;;;5028915;28;20486;-74
2021/11/22 13:46:38;;;;;;;3.93;1.93;;;;;;;;;;5026575;28;20453;-75
2021/11/22 13:49:08;;;;;;;5.00;3.60;;;;;;;;;;5018531;28;20478;-75
2021/11/22 13:51:45;;;;;;;6.83;4.33;;;;;;;;;;5020320;28;20458;-75
2021/11/22 13:54:16;;;;;;;6.83;2.90;;;;;;;;;;5023425;28;20529;-76
2021/11/22 13:56:46;;;;;;;6.47;3.93;;;;;;;;;;5025843;28;20922;-75
2021/11/22 13:59:49;;;;;;;3.57;2.37;;;;;;;;;;5034720;28;20546;-74
2021/11/22 14:02:26;;;;;;;7.10;4.53;;;;;;;;;;5025140;28;20505;-75
2021/11/22 14:05:16;;;;;;;4.77;2.97;;;;;;;;;;5027573;28;20482;-75
2021/11/22 14:07:57;;;;;;;3.80;2.87;;;;;;;;;;5031865;28;20482;-74
2021/11/22 14:10:41;;;;;;;5.50;4.17;;;;;;;;;;5024523;28;20473;-74
2021/11/22 14:13:21;;;;;;;6.77;4.27;;;;;;;;;;5025077;28;20462;-73
2021/11/22 14:15:56;;;;;;;4.77;2.93;;;;;;;;;;5031164;28;20921;-74
2021/11/22 14:18:25;;;;;;;4.93;2.73;;;;;;;;;;5019349;28;20557;-74
2021/11/22 14:20:54;;;;;;;5.73;2.90;;;;;;;;;;5018605;28;20513;-74
2021/11/22 14:23:31;;;;;;;5.63;3.00;;;;;;;;;;5028904;28;20465;-74
2021/11/22 14:26:00;;;;;;;8.37;3.70;;;;;;;;;;5022178;28;20591;-74
2021/11/22 14:28:31;;;;;;;7.63;4.80;;;;;;;;;;5019939;28;20450;-74
2021/11/22 14:31:02;;;;;;;4.93;2.57;;;;;;;;;;5023601;28;20469;-74
2021/11/22 14:33:30;;;;;;;3.53;2.73;;;;;;;;;;5033427;28;20462;-73
2021/11/22 14:36:00;;;;;;;6.10;3.93;;;;;;;;;;5031316;28;20474;-73
2021/11/22 14:38:33;;;;;;;9.03;2.80;;;;;;;;;;5031757;28;20463;-74
2021/11/22 14:41:23;;;;;;;5.60;3.87;;;;;;;;;;5026868;28;20462;-74
2021/11/22 14:43:52;;;;;;;5.00;2.90;;;;;;;;;;5031896;28;20500;-74
2021/11/22 14:46:21;;;;;;;11.73;4.60;;;;;;;;;;5031256;28;20473;-73
2021/11/22 14:49:01;;;;;;;4.37;3.33;;;;;;;;;;5031949;28;20520;-73
2021/11/22 14:51:38;;;;;;;4.67;2.83;;;;;;;;;;5030213;28;20585;-73
2021/11/22 14:54:10;;;;;;;4.07;3.07;;;;;;;;;;5019490;28;20520;-73
2021/11/22 14:56:39;;;;;;;8.73;3.93;;;;;;;;;;5024103;28;20494;-76
2021/11/22 14:59:18;;;;;;;7.63;4.10;;;;;;;;;;5030140;28;20534;-73
2021/11/22 15:01:48;;;;;;;13.83;8.20;;;;;;;;;;5023555;28;20459;-73
2021/11/22 15:04:42;;;;;;;8.70;5.60;;;;;;;;;;5030697;28;21179;-72
2021/11/22 15:07:19;;;;;;;8.03;4.60;;;;;;;;;;5030187;28;20455;-74
2021/11/22 15:10:21;;;;;;;5.60;4.10;;;;;;;;;;5022617;28;20453;-73
2021/11/22 15:16:41;;;;;;;8.07;3.43;;;;;;;;;;5037725;28;20960;-73
2021/11/22 15:19:42;;;;;;;5.27;2.40;;;;;;;;;;5021094;28;20534;-73
2021/11/22 15:22:14;;;;;;;3.80;2.47;;;;;;;;;;5025888;28;20446;-72
2021/11/22 15:24:43;;;;;;;5.60;2.83;;;;;;;;;;5031217;28;20605;-73
2021/11/22 15:27:25;;;;;;;6.43;3.77;;;;;;;;;;5023030;28;20450;-72
2021/11/22 15:36:04;;;;;;;;;;;;;;;;;;;;;
2021/11/22 15:39:18;;;;;;;6.23;4.23;;;;;;;;;;5057579;28;20450;-74